Time;durP1;ratioP1;P1;durP2;ratioP2;P2;SDS_P1;SDS_P2;PMS_P1;PMS_P2;Temp;Humidity;BMP_temperature;BMP_pressure;BME280_temperature;BME280_humidity;BME280_pressure;Samples;Min_cycle;Max_cycle;Signal;HPM_P1;HPM_P2
2021/04/20 00:01:57;;;;;;;42.13;22.97;;;;;;;8.32;97.21;96598.91;4945726;28;21223;-71
2021/04/20 00:04:24;;;;;;;40.27;21.83;;;;;;;8.30;97.05;96590.38;4939071;28;20477;-73
2021/04/20 00:06:52;;;;;;;39.80;21.93;;;;;;;8.25;97.58;96600.16;4945250;28;20850;-74
2021/04/20 00:09:19;;;;;;;41.77;23.80;;;;;;;8.23;97.64;96589.84;4944578;28;20529;-70
2021/04/20 00:11:46;;;;;;;38.57;21.87;;;;;;;8.27;97.30;96587.94;4939789;28;20442;-72
2021/04/20 00:14:14;;;;;;;44.60;23.10;;;;;;;8.23;96.96;96581.25;4939788;28;20474;-71
2021/04/20 00:16:42;;;;;;;35.87;20.73;;;;;;;8.18;97.21;96584.88;4941640;28;21149;-73
2021/04/20 00:19:09;;;;;;;44.30;23.20;;;;;;;8.13;96.79;96586.84;4936131;28;20481;-72
2021/04/20 00:21:36;;;;;;;42.27;21.93;;;;;;;8.09;96.62;96583.69;4944174;28;20471;-72
2021/04/20 00:24:04;;;;;;;44.47;23.17;;;;;;;8.01;96.42;96580.66;4942019;28;20479;-72
2021/04/20 00:26:31;;;;;;;39.90;23.53;;;;;;;7.93;96.36;96578.47;4938966;28;20478;-72
2021/04/20 00:28:58;;;;;;;41.03;22.20;;;;;;;7.93;95.93;96573.28;4944865;28;20755;-71
2021/04/20 00:31:25;;;;;;;43.17;23.10;;;;;;;7.76;96.20;96585.44;4941281;28;21014;-72
2021/04/20 00:33:52;;;;;;;39.90;23.70;;;;;;;7.72;95.99;96578.75;4941746;28;20454;-73
2021/04/20 00:36:19;;;;;;;39.20;20.17;;;;;;;7.60;96.21;96569.84;4936765;28;20828;-73
2021/04/20 00:38:47;;;;;;;37.43;21.07;;;;;;;7.54;95.94;96569.31;4942272;28;20462;-71
2021/04/20 00:41:15;;;;;;;37.43;21.00;;;;;;;7.52;96.42;96573.72;4938783;28;20446;-73
2021/04/20 00:43:44;;;;;;;35.47;21.07;;;;;;;7.42;96.99;96570.75;4938613;28;20536;-72
2021/04/20 00:46:13;;;;;;;42.00;21.97;;;;;;;7.42;96.87;96575.94;4944925;28;20764;-74
2021/04/20 00:48:42;;;;;;;39.40;22.67;;;;;;;7.38;97.03;96573.56;4941945;28;20474;-72
2021/04/20 00:51:10;;;;;;;50.07;22.50;;;;;;;7.36;97.21;96570.25;4946104;28;20446;-74
2021/04/20 00:53:37;;;;;;;39.00;19.57;;;;;;;7.21;97.12;96565.81;4941033;28;20481;-73
2021/04/20 00:56:05;;;;;;;37.83;19.80;;;;;;;7.27;97.09;96565.50;4944280;28;20443;-73
2021/04/20 00:58:33;;;;;;;33.23;20.00;;;;;;;7.24;96.98;96560.47;4943374;28;20962;-70
2021/04/20 01:01:01;;;;;;;37.17;17.57;;;;;;;7.19;96.79;96549.50;4939919;28;20462;-72
2021/04/20 01:03:28;;;;;;;29.80;15.57;;;;;;;7.15;96.97;96556.59;4946887;28;20476;-73
2021/04/20 01:05:55;;;;;;;25.30;16.27;;;;;;;7.14;96.51;96552.31;4943930;28;20797;-72
2021/04/20 01:08:24;;;;;;;28.57;15.90;;;;;;;7.10;96.93;96557.72;4938017;28;21055;-72
2021/04/20 01:10:53;;;;;;;60.13;17.27;;;;;;;6.96;97.50;96554.97;4941527;28;20938;-72
2021/04/20 01:13:22;;;;;;;60.80;16.90;;;;;;;6.95;97.69;96554.16;4934994;28;20269;-73
2021/04/20 01:15:52;;;;;;;79.40;18.13;;;;;;;6.79;98.45;96558.38;4946272;28;20933;-74
2021/04/20 01:18:23;;;;;;;68.00;19.10;;;;;;;6.73;99.10;96558.69;4944064;28;20203;-73
2021/04/20 01:20:52;;;;;;;61.07;16.50;;;;;;;6.70;99.31;96558.00;4948030;28;20438;-73
2021/04/20 01:23:23;;;;;;;31.45;16.30;;;;;;;6.60;98.50;96556.72;4940337;28;20434;-73
2021/04/20 01:25:53;;;;;;;24.35;16.30;;;;;;;6.62;98.38;96560.09;4944367;28;20523;-73
2021/04/20 01:28:22;;;;;;;23.50;15.02;;;;;;;6.59;98.19;96560.22;4943107;28;20224;-72
2021/04/20 01:30:49;;;;;;;19.23;14.75;;;;;;;6.56;98.04;96555.22;4948543;28;20625;-72
2021/04/20 01:33:17;;;;;;;36.97;14.32;;;;;;;6.59;97.58;96560.22;4941803;28;20195;-73
2021/04/20 01:35:44;;;;;;;36.10;15.43;;;;;;;6.53;96.91;96556.19;4942135;28;20705;-73
2021/04/20 01:38:11;;;;;;;25.38;16.30;;;;;;;6.46;97.48;96554.81;4940014;28;20666;-72
2021/04/20 01:40:38;;;;;;;27.70;15.20;;;;;;;6.39;98.03;96553.41;4942781;28;20187;-73
2021/04/20 01:43:06;;;;;;;30.83;17.10;;;;;;;6.43;98.05;96561.84;4943848;28;20188;-72
2021/04/20 01:45:33;;;;;;;46.30;14.55;;;;;;;6.42;98.51;96562.78;4935297;28;20202;-72
2021/04/20 01:48:01;;;;;;;25.43;16.63;;;;;;;6.46;98.38;96564.28;4924921;28;20535;-72
2021/04/20 01:50:28;;;;;;;89.82;18.17;;;;;;;6.46;99.10;96556.53;4922748;28;20517;-73
2021/04/20 01:52:55;;;;;;;159.00;21.50;;;;;;;6.53;98.75;96558.78;4941961;28;20179;-72
2021/04/20 01:55:22;;;;;;;104.45;18.90;;;;;;;6.61;98.85;96558.41;4939399;28;20221;-71
2021/04/20 01:57:50;;;;;;;86.72;17.95;;;;;;;6.62;98.85;96560.09;4947654;28;20219;-71
2021/04/20 02:00:21;;;;;;;64.32;19.23;;;;;;;6.53;99.57;96563.09;4952334;28;20231;-72
2021/04/20 02:03:12;;;;;;;70.35;17.42;;;;;;;6.46;99.90;96559.13;4948761;28;20247;-74
2021/04/20 02:05:40;;;;;;;24.73;16.20;;;;;;;6.52;100.00;96561.44;4927768;28;20285;-71
2021/04/20 02:08:07;;;;;;;23.83;14.45;;;;;;;6.54;100.00;96563.03;4946928;28;20175;-73
2021/04/20 02:10:34;;;;;;;59.63;18.20;;;;;;;6.54;100.00;96550.09;4952819;28;20437;-73
2021/04/20 02:13:01;;;;;;;49.80;19.75;;;;;;;6.63;100.00;96561.78;4947518;28;20273;-74
2021/04/20 02:15:29;;;;;;;34.00;20.20;;;;;;;6.70;100.00;96558.81;4943512;28;20219;-73
2021/04/20 02:17:57;;;;;;;130.77;23.17;;;;;;;6.65;100.00;96559.94;4938004;28;20203;-72
2021/04/20 02:20:25;;;;;;;72.57;22.02;;;;;;;6.54;100.00;96538.91;4939418;28;20613;-72
2021/04/20 02:22:52;;;;;;;31.08;17.95;;;;;;;6.60;100.00;96551.56;4945502;28;20218;-71
2021/04/20 02:25:19;;;;;;;36.20;17.60;;;;;;;6.60;100.00;96557.56;4940738;28;20867;-74
2021/04/20 02:27:48;;;;;;;26.27;15.13;;;;;;;6.59;100.00;96555.91;4939913;28;20533;-72
2021/04/20 02:30:17;;;;;;;60.03;15.55;;;;;;;6.56;100.00;96565.56;4939883;28;20597;-73
2021/04/20 02:32:46;;;;;;;37.80;16.75;;;;;;;6.55;99.93;96561.31;4942991;28;20198;-72
2021/04/20 02:35:15;;;;;;;38.88;16.60;;;;;;;6.51;100.00;96558.03;4941441;28;20868;-74
2021/04/20 02:37:43;;;;;;;41.72;17.77;;;;;;;6.49;99.67;96561.59;4940290;28;20238;-72
2021/04/20 02:40:12;;;;;;;27.60;16.97;;;;;;;6.50;99.66;96555.50;4948734;28;20219;-73
2021/04/20 02:42:39;;;;;;;153.48;22.20;;;;;;;6.50;99.28;96555.50;4943346;28;20431;-74
2021/04/20 02:45:09;;;;;;;59.00;20.40;;;;;;;6.41;99.88;96559.34;4939838;28;20602;-73
2021/04/20 02:47:37;;;;;;;47.40;19.92;;;;;;;6.35;100.00;96551.84;4943265;28;20187;-72
2021/04/20 02:50:09;;;;;;;33.55;19.35;;;;;;;6.32;100.00;96548.56;4948403;28;20313;-73
2021/04/20 02:52:38;;;;;;;31.90;17.15;;;;;;;6.39;100.00;96552.56;4944562;28;20622;-72
2021/04/20 02:55:07;;;;;;;53.75;19.98;;;;;;;6.31;99.48;96550.34;4947162;28;20219;-71
2021/04/20 02:57:37;;;;;;;45.13;20.15;;;;;;;6.27;99.57;96555.72;4942551;28;20210;-72
2021/04/20 03:00:06;;;;;;;34.67;19.35;;;;;;;6.27;99.16;96547.97;4945299;28;20741;-71
2021/04/20 03:02:37;;;;;;;28.63;17.27;;;;;;;6.17;99.25;96544.13;4947641;28;20207;-70
2021/04/20 03:05:08;;;;;;;31.40;16.25;;;;;;;6.04;98.60;96551.59;4942562;28;20231;-74
2021/04/20 03:07:35;;;;;;;30.00;18.35;;;;;;;5.95;99.63;96546.00;4952105;28;20199;-71
2021/04/20 03:10:03;;;;;;;23.58;15.48;;;;;;;6.03;99.51;96541.34;4944371;28;20682;-72
2021/04/20 03:12:30;;;;;;;99.57;17.80;;;;;;;6.05;99.29;96548.09;4938962;28;20630;-72
2021/04/20 03:15:08;;;;;;;30.13;15.52;;;;;;;6.00;98.86;96546.63;4947909;28;20215;-74
2021/04/20 03:17:37;;;;;;;23.13;15.40;;;;;;;5.99;99.03;96543.22;4941059;28;20536;-72
2021/04/20 03:20:08;;;;;;;26.02;15.07;;;;;;;5.98;98.39;96540.72;4946984;28;20705;-74
2021/04/20 03:22:36;;;;;;;25.42;16.20;;;;;;;6.02;98.40;96537.06;4947114;28;20191;-73
2021/04/20 03:25:19;;;;;;;26.95;16.13;;;;;;;6.11;98.40;96534.09;4947392;28;20222;-71
2021/04/20 03:27:48;;;;;;;39.25;16.35;;;;;;;6.12;97.95;96528.00;4940641;28;20600;-71
2021/04/20 03:30:17;;;;;;;29.55;15.00;;;;;;;6.09;98.04;96533.28;4944248;28;20925;-71
2021/04/20 03:32:50;;;;;;;26.48;14.40;;;;;;;6.06;98.52;96530.88;4947157;28;20191;-72
2021/04/20 03:35:22;;;;;;;57.67;16.90;;;;;;;6.07;98.46;96524.78;4943162;28;20748;-71
2021/04/20 03:37:56;;;;;;;128.27;18.05;;;;;;;6.04;99.21;96519.78;4939442;28;20560;-72
2021/04/20 03:40:24;;;;;;;133.98;19.95;;;;;;;5.90;99.84;96504.06;4934677;28;20223;-72
2021/04/20 03:42:55;;;;;;;88.72;19.30;;;;;;;5.99;100.00;96538.06;4938974;28;20187;-73
2021/04/20 03:45:25;;;;;;;136.65;20.77;;;;;;;5.96;100.00;96527.03;4945684;28;20963;-73
2021/04/20 03:47:56;;;;;;;117.32;20.85;;;;;;;6.07;100.00;96535.97;4942660;28;20580;-71
2021/04/20 03:50:26;;;;;;;123.63;19.88;;;;;;;6.02;100.00;96526.72;4946487;28;20277;-74
2021/04/20 03:52:57;;;;;;;49.10;17.58;;;;;;;5.92;100.00;96528.06;4945227;28;20191;-73
2021/04/20 03:55:27;;;;;;;33.15;17.60;;;;;;;5.83;100.00;96520.72;4948168;28;20231;-74
2021/04/20 03:57:56;;;;;;;25.98;14.57;;;;;;;5.83;100.00;96533.66;4942547;28;20698;-73
2021/04/20 04:00:24;;;;;;;35.90;14.57;;;;;;;5.74;100.00;96526.28;4943488;28;20621;-73
2021/04/20 04:02:54;;;;;;;59.92;13.73;;;;;;;5.69;100.00;96525.63;4946416;28;20195;-72
2021/04/20 04:05:24;;;;;;;25.63;12.82;;;;;;;5.56;99.64;96527.91;4939574;28;20674;-72
2021/04/20 04:07:54;;;;;;;45.42;15.90;;;;;;;5.53;99.58;96527.22;4944514;28;20534;-73
2021/04/20 04:10:22;;;;;;;98.32;14.75;;;;;;;5.49;99.26;96530.81;4938347;28;20219;-71
2021/04/20 04:12:52;;;;;;;37.58;15.27;;;;;;;5.50;99.63;96520.44;4946754;28;20592;-73
2021/04/20 04:15:21;;;;;;;30.23;13.30;;;;;;;5.55;99.83;96528.84;4942266;28;20670;-74
2021/04/20 04:17:51;;;;;;;86.55;15.40;;;;;;;5.50;100.00;96535.06;4944726;28;20187;-74
2021/04/20 04:20:19;;;;;;;75.47;16.23;;;;;;;5.65;100.00;96524.06;4948296;28;20265;-71
2021/04/20 04:22:57;;;;;;;76.57;17.73;;;;;;;5.64;99.97;96519.81;4948685;28;20197;-75
2021/04/20 04:25:42;;;;;;;117.20;19.50;;;;;;;5.60;100.00;96531.22;4939754;28;20670;-73
2021/04/20 04:28:12;;;;;;;55.90;17.63;;;;;;;5.49;100.00;96533.41;4941781;28;20198;-75
2021/04/20 04:30:40;;;;;;;34.80;17.02;;;;;;;5.57;100.00;96523.56;4942824;28;20179;-73
2021/04/20 04:33:07;;;;;;;49.33;18.85;;;;;;;5.62;100.00;96522.47;4937253;28;20650;-73
2021/04/20 04:35:36;;;;;;;71.20;18.60;;;;;;;5.62;100.00;96529.38;4939312;28;20203;-74
2021/04/20 04:38:05;;;;;;;148.55;22.98;;;;;;;5.66;100.00;96521.44;4942424;28;20669;-73
2021/04/20 04:40:33;;;;;;;139.93;21.38;;;;;;;5.73;100.00;96528.00;4949969;28;20254;-74
2021/04/20 04:43:01;;;;;;;115.32;20.42;;;;;;;5.79;100.00;96532.94;4940397;28;20819;-73
2021/04/20 04:45:29;;;;;;;161.80;22.02;;;;;;;5.74;100.00;96534.84;4939479;28;20226;-73
2021/04/20 04:47:56;;;;;;;221.15;23.10;;;;;;;5.75;100.00;96539.09;4948847;28;20580;-72
2021/04/20 04:50:24;;;;;;;177.90;24.20;;;;;;;5.59;100.00;96542.41;4941899;28;20211;-73
2021/04/20 04:52:52;;;;;;;101.15;18.75;;;;;;;5.38;100.00;96543.38;4942879;28;20619;-73
2021/04/20 04:55:20;;;;;;;100.82;18.67;;;;;;;5.53;100.00;96548.69;4938020;28;20549;-72
2021/04/20 04:57:49;;;;;;;92.93;19.45;;;;;;;5.57;100.00;96539.06;4941972;28;20202;-70
2021/04/20 05:00:17;;;;;;;126.25;19.90;;;;;;;5.53;100.00;96558.19;4938713;28;20585;-71
2021/04/20 05:02:50;;;;;;;62.50;18.20;;;;;;;5.57;100.00;96544.22;4928784;29;20263;-73
2021/04/20 05:05:25;;;;;;;73.97;17.70;;;;;;;5.58;100.00;96551.06;4928789;29;20271;-73
2021/04/20 05:07:57;;;;;;;44.88;14.88;;;;;;;5.62;100.00;96542.28;4923710;29;20540;-73
2021/04/20 05:10:25;;;;;;;46.50;16.15;;;;;;;5.61;100.00;96535.47;4928255;29;20224;-72
2021/04/20 05:12:53;;;;;;;49.28;13.30;;;;;;;5.62;100.00;96539.72;4918086;29;20738;-72
2021/04/20 05:15:23;;;;;;;31.92;13.60;;;;;;;5.67;100.00;96545.53;4919387;29;20616;-73
2021/04/20 05:17:51;;;;;;;30.00;13.65;;;;;;;5.72;100.00;96543.56;4920429;29;20624;-73
2021/04/20 05:20:20;;;;;;;33.50;18.88;;;;;;;5.65;99.26;96542.16;4928561;28;20775;-73
2021/04/20 05:22:48;;;;;;;41.88;12.95;;;;;;;5.55;99.00;96546.03;4920450;29;20206;-74
2021/04/20 05:25:17;;;;;;;75.55;13.95;;;;;;;5.33;98.72;96546.13;4931122;29;20238;-73
2021/04/20 05:27:52;;;;;;;248.65;18.65;;;;;;;5.02;100.00;96550.06;4923174;28;20199;-73
2021/04/20 05:30:20;;;;;;;194.63;19.73;;;;;;;4.75;100.00;96535.69;4918398;29;20693;-74
2021/04/20 05:32:50;;;;;;;203.00;20.70;;;;;;;4.74;100.00;96552.06;4926880;29;20758;-72
2021/04/20 05:35:17;;;;;;;283.52;36.15;;;;;;;4.79;100.00;96557.91;4907812;29;20226;-72
2021/04/20 05:37:46;;;;;;;370.50;29.58;;;;;;;4.81;100.00;96556.91;4931835;29;20714;-72
2021/04/20 05:40:16;;;;;;;240.13;26.42;;;;;;;4.98;100.00;96557.09;4924307;28;20318;-73
2021/04/20 05:42:45;;;;;;;183.88;19.02;;;;;;;5.03;100.00;96552.56;4915990;29;20605;-74
2021/04/20 05:45:15;;;;;;;192.43;15.02;;;;;;;4.89;100.00;96559.19;4923005;28;20857;-72
2021/04/20 05:47:44;;;;;;;231.30;18.15;;;;;;;5.02;100.00;96558.63;4922422;29;20266;-73
2021/04/20 05:50:17;;;;;;;106.07;15.07;;;;;;;5.24;100.00;96561.16;4926203;29;20764;-72
2021/04/20 05:52:44;;;;;;;122.38;16.17;;;;;;;5.25;100.00;96557.69;4924839;29;20231;-71
2021/04/20 05:55:11;;;;;;;319.88;22.52;;;;;;;5.22;100.00;96557.78;4919989;29;20744;-72
2021/04/20 05:57:39;;;;;;;352.67;23.13;;;;;;;5.19;100.00;96557.94;4924843;29;20204;-72
2021/04/20 06:00:08;;;;;;;385.25;25.73;;;;;;;5.45;100.00;96561.09;4899755;28;20667;-73
2021/04/20 06:02:38;;;;;;;111.63;15.70;;;;;;;5.58;100.00;96564.81;4925869;29;20195;-71
2021/04/20 06:05:10;;;;;;;360.10;25.73;;;;;;;5.49;100.00;96560.06;4924501;28;20618;-72
2021/04/20 06:07:42;;;;;;;138.57;15.38;;;;;;;5.42;100.00;96550.91;4921427;29;20250;-71
2021/04/20 06:10:10;;;;;;;185.27;19.05;;;;;;;5.57;100.00;96555.41;4920285;29;20598;-72
2021/04/20 06:12:48;;;;;;;43.92;14.70;;;;;;;5.61;100.00;96569.03;4930535;29;20635;-70
2021/04/20 06:15:16;;;;;;;54.97;15.38;;;;;;;5.81;100.00;96563.88;4924623;29;20535;-74
2021/04/20 06:17:45;;;;;;;149.70;19.40;;;;;;;6.07;100.00;96563.53;4930541;29;20644;-73
2021/04/20 06:20:15;;;;;;;302.23;23.38;;;;;;;5.96;100.00;96561.44;4927329;28;20757;-72
2021/04/20 06:22:46;;;;;;;207.48;19.98;;;;;;;5.87;100.00;96563.56;4920857;29;20196;-73
2021/04/20 06:25:16;;;;;;;482.42;35.60;;;;;;;5.99;100.00;96566.47;4921525;28;20290;-71
2021/04/20 06:27:48;;;;;;;254.27;22.40;;;;;;;6.06;100.00;96569.63;4935708;29;20206;-71
2021/04/20 06:30:16;;;;;;;235.25;21.38;;;;;;;6.04;100.00;96558.53;4930974;29;20228;-72
2021/04/20 06:32:45;;;;;;;189.63;16.02;;;;;;;6.33;100.00;96570.97;4924674;29;20511;-71
2021/04/20 06:35:16;;;;;;;60.88;14.27;;;;;;;6.62;100.00;96560.09;4939761;28;20281;-70
2021/04/20 06:37:46;;;;;;;52.28;12.38;;;;;;;7.15;99.79;96560.94;4900856;29;20207;-73
2021/04/20 06:40:20;;;;;;;188.63;18.13;;;;;;;7.47;96.77;96562.75;4922115;28;20588;-73
2021/04/20 06:42:58;;;;;;;83.93;12.50;;;;;;;7.60;95.11;96571.59;4932517;29;20592;-74
2021/04/20 06:45:31;;;;;;;80.57;14.03;;;;;;;7.68;94.45;96556.50;4926090;29;20231;-74
2021/04/20 06:48:07;;;;;;;117.80;15.73;;;;;;;7.68;95.09;96562.53;4926692;29;20446;-70
2021/04/20 06:50:37;;;;;;;53.00;14.48;;;;;;;7.54;95.21;96558.94;4924937;29;20290;-72
2021/04/20 06:53:11;;;;;;;51.30;14.25;;;;;;;7.67;94.77;96575.53;4924379;28;20732;-72
2021/04/20 06:55:47;;;;;;;363.67;27.85;;;;;;;7.80;94.23;96566.22;4926776;29;20655;-72
2021/04/20 06:58:20;;;;;;;32.17;14.30;;;;;;;8.12;94.62;96565.38;4913193;29;20215;-70
2021/04/20 07:00:55;;;;;;;59.20;13.23;;;;;;;8.40;93.27;96562.09;4924106;28;20286;-73
2021/04/20 07:03:29;;;;;;;98.73;17.30;;;;;;;8.29;91.84;96561.00;4928287;29;20467;-72
2021/04/20 07:06:06;;;;;;;116.97;17.60;;;;;;;8.33;91.38;96567.72;4931296;29;20463;-72
2021/04/20 07:08:42;;;;;;;116.13;16.80;;;;;;;8.22;91.86;96564.00;4925741;29;21034;-71
2021/04/20 07:11:12;;;;;;;27.87;14.70;;;;;;;8.47;91.82;96566.03;4924709;29;20451;-71
2021/04/20 07:13:45;;;;;;;49.07;14.77;;;;;;;8.75;92.32;96563.63;4918049;29;20489;-72
2021/04/20 07:16:24;;;;;;;31.33;13.00;;;;;;;8.96;91.18;96570.22;4928713;29;20922;-73
2021/04/20 07:19:29;;;;;;;40.40;12.83;;;;;;;9.44;91.44;96572.59;4921222;28;20869;-73
2021/04/20 07:22:37;;;;;;;22.17;13.37;;;;;;;9.67;88.90;96573.88;4871842;29;20517;-72
2021/04/20 07:25:14;;;;;;;21.40;11.07;;;;;;;9.93;86.80;96566.19;4924082;28;20934;-71
2021/04/20 07:27:58;;;;;;;23.23;14.40;;;;;;;10.36;86.19;96570.50;4922458;29;20933;-73
2021/04/20 07:30:35;;;;;;;22.83;12.23;;;;;;;10.74;84.89;96566.34;4930197;29;20467;-70
2021/04/20 07:33:38;;;;;;;18.47;12.23;;;;;;;11.39;84.59;96562.09;4932116;28;20805;-72
2021/04/20 07:36:16;;;;;;;26.03;13.80;;;;;;;12.08;82.20;96560.03;4848271;29;20516;-72
2021/04/20 07:38:55;;;;;;;37.87;22.07;;;;;;;12.83;78.36;96566.78;4914997;29;21185;-73
2021/04/20 07:41:30;;;;;;;25.20;14.57;;;;;;;13.14;77.77;96560.22;4922722;29;20478;-70
2021/04/20 07:44:03;;;;;;;24.00;13.83;;;;;;;13.72;75.10;96553.19;4928824;29;20462;-71
2021/04/20 07:46:38;;;;;;;22.93;12.30;;;;;;;13.65;74.41;96545.94;4926135;29;20448;-71
2021/04/20 07:49:16;;;;;;;26.57;15.50;;;;;;;13.46;73.62;96545.63;4923961;28;20542;-70
2021/04/20 07:51:53;;;;;;;22.80;12.97;;;;;;;13.13;74.63;96545.50;4915234;28;20562;-72
2021/04/20 07:54:33;;;;;;;17.73;12.27;;;;;;;12.73;76.81;96546.63;4926764;29;21052;-70
2021/04/20 07:57:07;;;;;;;23.00;13.90;;;;;;;12.52;77.76;96548.16;4919452;29;20450;-71
2021/04/20 07:59:45;;;;;;;26.60;14.80;;;;;;;12.50;77.37;96536.19;4919051;29;20875;-71
2021/04/20 08:02:27;;;;;;;29.57;16.13;;;;;;;12.09;78.69;96546.84;4926708;29;20530;-70
2021/04/20 08:05:02;;;;;;;24.60;15.50;;;;;;;11.11;83.02;96544.00;4933887;29;20920;-70
2021/04/20 08:07:39;;;;;;;25.27;14.57;;;;;;;10.71;86.00;96543.13;4925281;29;20444;-71
2021/04/20 08:10:09;;;;;;;23.97;15.33;;;;;;;10.56;86.83;96551.88;4922717;29;21012;-71
2021/04/20 08:12:50;;;;;;;28.13;16.37;;;;;;;10.44;87.68;96547.44;4931277;29;20945;-70
2021/04/20 08:15:27;;;;;;;30.00;17.30;;;;;;;10.34;88.71;96548.94;4925844;28;20527;-71
2021/04/20 08:18:00;;;;;;;30.20;17.63;;;;;;;10.53;88.46;96551.25;4921776;29;20435;-73
2021/04/20 08:20:29;;;;;;;33.73;19.20;;;;;;;10.93;87.06;96548.63;4922305;29;20964;-70
2021/04/20 08:22:58;;;;;;;32.87;17.20;;;;;;;11.04;85.67;96547.94;4923302;29;20773;-70
2021/04/20 08:25:31;;;;;;;32.27;20.47;;;;;;;11.44;84.55;96545.25;4921714;28;20471;-71
2021/04/20 08:28:06;;;;;;;30.73;19.13;;;;;;;11.85;81.60;96542.50;4927686;29;20450;-71
2021/04/20 08:30:43;;;;;;;37.83;18.93;;;;;;;11.80;79.47;96540.22;4929587;29;20467;-72
2021/04/20 08:33:15;;;;;;;33.77;17.13;;;;;;;11.95;80.22;96543.53;4927055;29;20786;-74
2021/04/20 08:35:47;;;;;;;31.90;18.60;;;;;;;12.18;78.32;96538.41;4922897;29;20837;-71
2021/04/20 08:38:39;;;;;;;29.57;18.40;;;;;;;12.33;77.47;96546.94;4927687;29;21011;-71
2021/04/20 08:41:11;;;;;;;33.27;17.60;;;;;;;12.68;76.75;96551.38;4923167;29;20473;-70
2021/04/20 08:43:56;;;;;;;28.13;15.30;;;;;;;13.32;69.14;96548.41;4920003;28;20990;-71
2021/04/20 08:46:36;;;;;;;22.20;14.33;;;;;;;13.46;70.15;96543.00;4924313;29;20919;-72
2021/04/20 08:49:25;;;;;;;26.60;15.30;;;;;;;14.54;69.76;96540.72;4922933;29;20834;-72
2021/04/20 08:51:55;;;;;;;21.10;13.10;;;;;;;15.46;62.53;96528.00;4920989;29;20518;-71
2021/04/20 08:54:47;;;;;;;23.43;13.47;;;;;;;15.09;62.80;96526.66;4922489;29;20927;-71
2021/04/20 08:57:24;;;;;;;22.50;13.00;;;;;;;14.64;63.83;96532.94;4923691;29;20453;-72
2021/04/20 09:00:04;;;;;;;21.93;11.33;;;;;;;14.83;62.29;96526.16;4922507;29;20848;-71
2021/04/20 09:02:44;;;;;;;28.97;18.23;;;;;;;14.48;63.23;96524.63;4920430;28;20876;-70
2021/04/20 09:05:22;;;;;;;28.57;16.43;;;;;;;13.92;64.22;96530.78;4923893;29;20792;-71
2021/04/20 09:08:25;;;;;;;29.87;16.87;;;;;;;13.66;67.42;96526.66;4922979;29;20460;-72
2021/04/20 09:10:57;;;;;;;30.43;18.67;;;;;;;13.42;68.76;96529.31;4919168;29;20863;-71
2021/04/20 09:13:29;;;;;;;26.67;14.20;;;;;;;13.36;65.66;96531.56;4919745;28;20764;-72
2021/04/20 09:16:18;;;;;;;19.67;13.00;;;;;;;13.29;65.42;96528.56;4919016;29;20981;-72
2021/04/20 09:18:46;;;;;;;22.30;13.77;;;;;;;13.53;65.52;96526.75;4917599;28;21005;-73
2021/04/20 09:21:18;;;;;;;28.70;17.40;;;;;;;13.63;67.78;96521.69;4928243;29;20879;-70
2021/04/20 09:24:01;;;;;;;26.40;15.93;;;;;;;14.15;66.56;96514.94;4924889;29;20760;-73
2021/04/20 09:26:54;;;;;;;25.57;14.83;;;;;;;15.04;63.51;96515.72;4931810;29;20470;-71
2021/04/20 09:29:26;;;;;;;27.60;14.80;;;;;;;15.63;63.09;96514.31;4930709;29;20503;-72
2021/04/20 09:31:57;;;;;;;16.90;11.37;;;;;;;16.08;59.81;96520.94;4933191;29;20857;-72
2021/04/20 09:34:27;;;;;;;22.83;13.40;;;;;;;16.36;58.08;96515.00;4920673;29;20748;-70
2021/04/20 09:36:56;;;;;;;19.03;12.63;;;;;;;16.15;57.69;96508.94;4931875;29;20432;-75
2021/04/20 09:39:24;;;;;;;22.40;13.40;;;;;;;16.00;58.36;96510.25;4920898;28;20698;-71
2021/04/20 09:41:55;;;;;;;18.40;13.73;;;;;;;15.96;59.43;96507.06;4923781;29;20461;-70
2021/04/20 09:44:32;;;;;;;20.73;12.60;;;;;;;15.73;57.83;96517.81;4917190;28;20470;-70
2021/04/20 09:47:22;;;;;;;26.70;14.27;;;;;;;14.30;60.87;96518.22;4917908;29;21018;-71
2021/04/20 09:50:02;;;;;;;24.93;13.33;;;;;;;14.17;62.43;96513.06;4923891;28;20853;-71
2021/04/20 09:52:45;;;;;;;21.20;13.63;;;;;;;14.43;64.11;96508.44;4923431;29;20908;-71
2021/04/20 09:55:17;;;;;;;30.00;18.63;;;;;;;14.90;62.78;96508.13;4924423;29;20498;-71
2021/04/20 09:57:48;;;;;;;24.43;14.83;;;;;;;15.26;62.00;96516.44;4918123;29;20449;-75
2021/04/20 10:00:16;;;;;;;25.43;14.37;;;;;;;15.49;62.51;96509.38;4927856;28;20502;-73
2021/04/20 10:02:59;;;;;;;25.80;14.80;;;;;;;15.45;61.30;96510.56;4917686;29;21102;-73
2021/04/20 10:05:35;;;;;;;28.77;16.07;;;;;;;15.54;62.15;96509.81;4914952;29;20478;-74
2021/04/20 10:08:22;;;;;;;19.93;13.87;;;;;;;16.24;62.46;96510.78;4918235;28;20907;-74
2021/04/20 10:10:54;;;;;;;26.47;14.63;;;;;;;16.49;61.24;96515.66;4926283;29;20459;-74
2021/04/20 10:13:53;;;;;;;24.33;13.70;;;;;;;16.26;58.67;96511.50;4922641;28;20442;-74
2021/04/20 10:16:25;;;;;;;27.27;14.77;;;;;;;15.98;59.57;96510.38;4933294;29;20917;-74
2021/04/20 10:19:00;;;;;;;22.57;14.60;;;;;;;15.65;60.97;96509.75;4931538;28;20481;-75
2021/04/20 10:21:30;;;;;;;19.67;12.77;;;;;;;16.13;59.30;96508.25;4924787;29;20733;-73
2021/04/20 10:24:03;;;;;;;19.07;11.97;;;;;;;16.30;58.98;96500.59;4921042;28;20883;-73
2021/04/20 10:26:39;;;;;;;18.37;12.20;;;;;;;16.61;58.08;96501.41;4910328;29;20937;-73
2021/04/20 10:29:13;;;;;;;18.87;11.40;;;;;;;16.64;59.45;96499.34;4931443;28;20458;-73
2021/04/20 10:31:48;;;;;;;22.93;13.73;;;;;;;16.76;58.64;96498.28;4927194;29;20443;-74
2021/04/20 10:34:17;;;;;;;21.37;13.10;;;;;;;16.98;57.60;96489.31;4921445;28;21197;-73
2021/04/20 10:36:50;;;;;;;26.90;16.73;;;;;;;16.98;58.58;96491.94;4924797;29;20444;-75
2021/04/20 10:39:21;;;;;;;21.73;13.70;;;;;;;16.80;58.40;96498.84;4929040;29;20486;-73
2021/04/20 10:41:49;;;;;;;20.27;13.80;;;;;;;16.87;59.39;96490.28;4926051;29;20438;-73
2021/04/20 10:44:18;;;;;;;22.50;15.30;;;;;;;16.94;58.55;96485.31;4926549;28;20966;-72
2021/04/20 10:46:52;;;;;;;20.13;14.53;;;;;;;16.97;57.68;96485.03;4923160;29;20546;-73
2021/04/20 10:49:21;;;;;;;26.03;15.30;;;;;;;17.06;58.35;96473.69;4924884;28;20468;-74
2021/04/20 10:51:54;;;;;;;26.60;15.43;;;;;;;17.15;57.57;96473.69;4914403;29;20466;-73
2021/04/20 10:54:22;;;;;;;24.10;16.13;;;;;;;17.23;58.43;96471.22;4921555;29;20950;-74
2021/04/20 10:56:53;;;;;;;26.30;16.17;;;;;;;17.29;58.64;96475.09;4930235;29;20448;-74
2021/04/20 10:59:32;;;;;;;96.63;58.43;;;;;;;17.23;58.46;96468.56;4919578;29;20969;-74
2021/04/20 11:02:03;;;;;;;47.17;28.83;;;;;;;17.30;57.84;96468.88;4930959;29;20821;-73
2021/04/20 11:04:34;;;;;;;23.83;15.67;;;;;;;18.09;57.94;96462.25;4929707;29;20562;-73
2021/04/20 11:07:18;;;;;;;24.00;16.67;;;;;;;18.93;55.78;96463.81;4922563;29;20497;-72
2021/04/20 11:09:46;;;;;;;24.10;16.40;;;;;;;19.23;55.21;96461.66;4921983;28;20463;-74
2021/04/20 11:12:16;;;;;;;24.63;16.30;;;;;;;18.95;55.20;96454.75;4930067;29;20447;-74
2021/04/20 11:14:49;;;;;;;32.33;18.20;;;;;;;18.52;55.48;96453.78;4923132;29;20494;-73
2021/04/20 11:17:23;;;;;;;31.50;18.97;;;;;;;18.22;55.73;96449.56;4925511;29;20482;-72
2021/04/20 11:19:57;;;;;;;26.23;17.77;;;;;;;18.08;57.00;96455.34;4922977;29;20553;-73
2021/04/20 11:22:27;;;;;;;30.43;18.77;;;;;;;17.99;57.46;96445.63;4919920;29;20463;-74
2021/04/20 11:24:59;;;;;;;28.30;18.33;;;;;;;17.87;57.44;96452.06;4930748;28;20474;-74
2021/04/20 11:27:31;;;;;;;28.33;20.27;;;;;;;17.78;58.39;96442.34;4919103;28;20870;-72
2021/04/20 11:30:06;;;;;;;29.33;19.60;;;;;;;17.58;59.09;96447.00;4927795;28;20467;-73
2021/04/20 11:32:39;;;;;;;28.90;18.10;;;;;;;17.58;58.32;96445.19;4918602;29;20470;-73
2021/04/20 11:35:13;;;;;;;34.90;19.47;;;;;;;17.47;58.84;96431.34;4918116;29;21164;-73
2021/04/20 11:37:42;;;;;;;25.87;17.10;;;;;;;17.67;58.35;96444.31;4917967;29;20972;-73
2021/04/20 11:40:16;;;;;;;32.37;18.60;;;;;;;17.85;56.84;96443.44;4924862;29;20479;-73
2021/04/20 11:42:48;;;;;;;30.20;17.30;;;;;;;18.57;56.37;96433.88;4920408;29;20998;-74